sensor_id;sensor_type;location;lat;lon;timestamp;P1;durP1;ratioP1;P2;durP2;ratioP2
5876;SDS011;2964;42.144;24.730;2024-02-16T00:01:01;7.33;;;6.83;;
5876;SDS011;2964;42.144;24.730;2024-02-16T00:03:28;9.03;;;6.73;;
5876;SDS011;2964;42.144;24.730;2024-02-16T00:05:55;9.10;;;7.17;;
5876;SDS011;2964;42.144;24.730;2024-02-16T00:08:22;8.43;;;6.67;;
5876;SDS011;2964;42.144;24.730;2024-02-16T00:10:50;7.73;;;7.07;;
5876;SDS011;2964;42.144;24.730;2024-02-16T00:13:16;7.50;;;6.80;;
5876;SDS011;2964;42.144;24.730;2024-02-16T00:15:43;9.03;;;7.60;;
5876;SDS011;2964;42.144;24.730;2024-02-16T00:18:10;7.63;;;6.87;;
5876;SDS011;2964;42.144;24.730;2024-02-16T00:20:37;7.63;;;6.90;;
5876;SDS011;2964;42.144;24.730;2024-02-16T00:23:04;7.40;;;6.53;;
5876;SDS011;2964;42.144;24.730;2024-02-16T00:25:31;7.37;;;6.87;;
5876;SDS011;2964;42.144;24.730;2024-02-16T00:28:00;6.97;;;6.50;;
5876;SDS011;2964;42.144;24.730;2024-02-16T00:30:27;7.70;;;6.73;;
5876;SDS011;2964;42.144;24.730;2024-02-16T00:32:54;7.27;;;6.87;;
5876;SDS011;2964;42.144;24.730;2024-02-16T00:35:20;7.00;;;6.50;;
5876;SDS011;2964;42.144;24.730;2024-02-16T00:37:47;7.17;;;6.70;;
5876;SDS011;2964;42.144;24.730;2024-02-16T00:40:14;7.27;;;6.77;;
5876;SDS011;2964;42.144;24.730;2024-02-16T00:42:41;8.13;;;7.50;;
5876;SDS011;2964;42.144;24.730;2024-02-16T00:45:09;7.77;;;7.27;;
5876;SDS011;2964;42.144;24.730;2024-02-16T00:47:35;8.03;;;7.23;;
5876;SDS011;2964;42.144;24.730;2024-02-16T00:50:01;9.37;;;8.57;;
5876;SDS011;2964;42.144;24.730;2024-02-16T00:52:30;7.83;;;7.17;;
5876;SDS011;2964;42.144;24.730;2024-02-16T00:54:57;8.63;;;7.73;;
5876;SDS011;2964;42.144;24.730;2024-02-16T00:57:24;7.57;;;7.03;;
5876;SDS011;2964;42.144;24.730;2024-02-16T00:59:50;8.03;;;7.33;;
5876;SDS011;2964;42.144;24.730;2024-02-16T01:02:18;7.43;;;6.93;;
5876;SDS011;2964;42.144;24.730;2024-02-16T01:04:45;7.47;;;6.80;;
5876;SDS011;2964;42.144;24.730;2024-02-16T01:07:12;7.40;;;6.70;;
5876;SDS011;2964;42.144;24.730;2024-02-16T01:09:39;7.90;;;7.40;;
5876;SDS011;2964;42.144;24.730;2024-02-16T01:12:06;8.20;;;7.37;;
5876;SDS011;2964;42.144;24.730;2024-02-16T01:14:33;7.80;;;7.20;;
5876;SDS011;2964;42.144;24.730;2024-02-16T01:16:59;7.60;;;7.03;;
5876;SDS011;2964;42.144;24.730;2024-02-16T01:19:27;7.47;;;6.97;;
5876;SDS011;2964;42.144;24.730;2024-02-16T01:21:55;7.23;;;6.47;;
5876;SDS011;2964;42.144;24.730;2024-02-16T01:24:23;7.47;;;6.93;;
5876;SDS011;2964;42.144;24.730;2024-02-16T01:26:49;7.80;;;7.10;;
5876;SDS011;2964;42.144;24.730;2024-02-16T01:29:16;8.00;;;7.20;;
5876;SDS011;2964;42.144;24.730;2024-02-16T01:31:43;7.63;;;7.13;;
5876;SDS011;2964;42.144;24.730;2024-02-16T01:34:09;6.87;;;6.57;;
5876;SDS011;2964;42.144;24.730;2024-02-16T01:36:38;7.27;;;6.87;;
5876;SDS011;2964;42.144;24.730;2024-02-16T01:39:04;7.87;;;7.27;;
5876;SDS011;2964;42.144;24.730;2024-02-16T01:41:32;6.83;;;6.40;;
5876;SDS011;2964;42.144;24.730;2024-02-16T01:43:58;7.53;;;6.93;;
5876;SDS011;2964;42.144;24.730;2024-02-16T01:46:26;7.47;;;6.97;;
5876;SDS011;2964;42.144;24.730;2024-02-16T01:48:53;7.30;;;6.70;;
5876;SDS011;2964;42.144;24.730;2024-02-16T01:51:20;7.30;;;6.80;;
5876;SDS011;2964;42.144;24.730;2024-02-16T01:53:50;7.47;;;6.97;;
5876;SDS011;2964;42.144;24.730;2024-02-16T01:56:19;7.47;;;6.87;;
5876;SDS011;2964;42.144;24.730;2024-02-16T01:58:47;8.57;;;6.90;;
5876;SDS011;2964;42.144;24.730;2024-02-16T02:01:14;7.43;;;6.67;;
5876;SDS011;2964;42.144;24.730;2024-02-16T02:03:40;8.23;;;6.70;;
5876;SDS011;2964;42.144;24.730;2024-02-16T02:06:07;7.40;;;6.73;;
5876;SDS011;2964;42.144;24.730;2024-02-16T02:08:35;7.43;;;7.00;;
5876;SDS011;2964;42.144;24.730;2024-02-16T02:11:03;7.93;;;7.20;;
5876;SDS011;2964;42.144;24.730;2024-02-16T02:13:30;6.73;;;6.20;;
5876;SDS011;2964;42.144;24.730;2024-02-16T02:15:57;7.00;;;6.13;;
5876;SDS011;2964;42.144;24.730;2024-02-16T02:18:24;7.20;;;6.73;;
5876;SDS011;2964;42.144;24.730;2024-02-16T02:20:54;6.87;;;6.27;;
5876;SDS011;2964;42.144;24.730;2024-02-16T02:23:22;7.73;;;7.00;;
5876;SDS011;2964;42.144;24.730;2024-02-16T02:25:49;7.00;;;6.60;;
5876;SDS011;2964;42.144;24.730;2024-02-16T02:28:15;6.80;;;6.40;;
5876;SDS011;2964;42.144;24.730;2024-02-16T02:30:42;7.03;;;6.63;;
5876;SDS011;2964;42.144;24.730;2024-02-16T02:33:10;6.93;;;6.53;;
5876;SDS011;2964;42.144;24.730;2024-02-16T02:35:38;6.77;;;6.23;;
5876;SDS011;2964;42.144;24.730;2024-02-16T02:38:05;7.87;;;7.20;;
5876;SDS011;2964;42.144;24.730;2024-02-16T02:40:33;7.83;;;7.13;;
5876;SDS011;2964;42.144;24.730;2024-02-16T02:43:00;8.13;;;7.57;;
5876;SDS011;2964;42.144;24.730;2024-02-16T02:45:27;7.43;;;6.93;;
5876;SDS011;2964;42.144;24.730;2024-02-16T02:47:53;8.27;;;7.57;;
5876;SDS011;2964;42.144;24.730;2024-02-16T02:50:20;7.53;;;7.13;;
5876;SDS011;2964;42.144;24.730;2024-02-16T02:52:47;8.00;;;7.30;;
5876;SDS011;2964;42.144;24.730;2024-02-16T02:55:13;9.07;;;8.27;;
5876;SDS011;2964;42.144;24.730;2024-02-16T02:57:41;11.20;;;7.80;;
5876;SDS011;2964;42.144;24.730;2024-02-16T03:00:08;8.90;;;8.10;;
5876;SDS011;2964;42.144;24.730;2024-02-16T03:02:36;7.53;;;6.93;;
5876;SDS011;2964;42.144;24.730;2024-02-16T03:05:04;7.90;;;7.17;;
5876;SDS011;2964;42.144;24.730;2024-02-16T03:07:32;8.30;;;7.50;;
5876;SDS011;2964;42.144;24.730;2024-02-16T03:09:59;11.57;;;7.40;;
5876;SDS011;2964;42.144;24.730;2024-02-16T03:12:26;8.17;;;7.57;;
5876;SDS011;2964;42.144;24.730;2024-02-16T03:14:54;8.77;;;7.97;;
5876;SDS011;2964;42.144;24.730;2024-02-16T03:17:21;8.07;;;7.27;;
5876;SDS011;2964;42.144;24.730;2024-02-16T03:19:48;8.13;;;7.40;;
5876;SDS011;2964;42.144;24.730;2024-02-16T03:22:14;7.60;;;7.07;;
5876;SDS011;2964;42.144;24.730;2024-02-16T03:24:41;8.23;;;7.53;;
5876;SDS011;2964;42.144;24.730;2024-02-16T03:27:09;8.63;;;7.93;;
5876;SDS011;2964;42.144;24.730;2024-02-16T03:29:36;8.93;;;8.13;;
5876;SDS011;2964;42.144;24.730;2024-02-16T03:32:05;9.63;;;8.70;;
5876;SDS011;2964;42.144;24.730;2024-02-16T03:34:32;7.90;;;7.30;;
5876;SDS011;2964;42.144;24.730;2024-02-16T03:36:58;7.53;;;6.93;;
5876;SDS011;2964;42.144;24.730;2024-02-16T03:39:25;8.13;;;7.40;;
5876;SDS011;2964;42.144;24.730;2024-02-16T03:41:52;7.87;;;7.17;;
5876;SDS011;2964;42.144;24.730;2024-02-16T03:44:21;7.80;;;6.83;;
5876;SDS011;2964;42.144;24.730;2024-02-16T03:46:48;7.97;;;7.37;;
5876;SDS011;2964;42.144;24.730;2024-02-16T03:49:16;7.13;;;6.70;;
5876;SDS011;2964;42.144;24.730;2024-02-16T03:51:43;7.57;;;7.03;;
5876;SDS011;2964;42.144;24.730;2024-02-16T03:54:09;7.67;;;7.17;;
5876;SDS011;2964;42.144;24.730;2024-02-16T03:56:36;7.53;;;7.03;;
5876;SDS011;2964;42.144;24.730;2024-02-16T03:59:03;8.30;;;7.70;;
5876;SDS011;2964;42.144;24.730;2024-02-16T04:01:30;8.13;;;7.43;;
5876;SDS011;2964;42.144;24.730;2024-02-16T04:03:57;8.73;;;7.97;;
5876;SDS011;2964;42.144;24.730;2024-02-16T04:06:25;8.93;;;8.07;;
5876;SDS011;2964;42.144;24.730;2024-02-16T04:08:52;8.50;;;7.90;;
5876;SDS011;2964;42.144;24.730;2024-02-16T04:11:18;7.60;;;6.90;;
5876;SDS011;2964;42.144;24.730;2024-02-16T04:13:45;7.53;;;6.90;;
5876;SDS011;2964;42.144;24.730;2024-02-16T04:16:12;7.43;;;6.93;;
5876;SDS011;2964;42.144;24.730;2024-02-16T04:18:38;6.60;;;6.20;;
5876;SDS011;2964;42.144;24.730;2024-02-16T04:21:05;8.23;;;7.73;;
5876;SDS011;2964;42.144;24.730;2024-02-16T04:23:33;9.13;;;8.53;;
5876;SDS011;2964;42.144;24.730;2024-02-16T04:26:00;8.90;;;8.00;;
5876;SDS011;2964;42.144;24.730;2024-02-16T04:28:27;7.73;;;7.17;;
5876;SDS011;2964;42.144;24.730;2024-02-16T04:30:53;9.00;;;8.17;;
5876;SDS011;2964;42.144;24.730;2024-02-16T04:33:20;7.33;;;6.73;;
5876;SDS011;2964;42.144;24.730;2024-02-16T04:35:47;7.17;;;6.63;;
5876;SDS011;2964;42.144;24.730;2024-02-16T04:38:15;8.27;;;7.70;;
5876;SDS011;2964;42.144;24.730;2024-02-16T04:40:43;7.73;;;7.20;;
5876;SDS011;2964;42.144;24.730;2024-02-16T04:43:10;7.67;;;7.17;;
5876;SDS011;2964;42.144;24.730;2024-02-16T04:45:37;8.17;;;7.17;;
5876;SDS011;2964;42.144;24.730;2024-02-16T04:48:04;7.87;;;7.47;;
5876;SDS011;2964;42.144;24.730;2024-02-16T04:50:31;7.80;;;7.20;;
5876;SDS011;2964;42.144;24.730;2024-02-16T04:52:58;7.13;;;6.53;;
5876;SDS011;2964;42.144;24.730;2024-02-16T04:55:26;9.40;;;6.77;;
5876;SDS011;2964;42.144;24.730;2024-02-16T04:57:54;13.00;;;10.73;;
5876;SDS011;2964;42.144;24.730;2024-02-16T05:00:20;10.03;;;7.50;;
5876;SDS011;2964;42.144;24.730;2024-02-16T05:02:47;7.80;;;7.30;;
5876;SDS011;2964;42.144;24.730;2024-02-16T05:05:13;8.03;;;7.10;;
5876;SDS011;2964;42.144;24.730;2024-02-16T05:07:41;7.53;;;7.03;;
5876;SDS011;2964;42.144;24.730;2024-02-16T05:10:08;7.97;;;7.17;;
5876;SDS011;2964;42.144;24.730;2024-02-16T05:12:36;7.90;;;7.30;;
5876;SDS011;2964;42.144;24.730;2024-02-16T05:15:04;9.30;;;7.80;;
5876;SDS011;2964;42.144;24.730;2024-02-16T05:17:32;7.00;;;6.53;;
5876;SDS011;2964;42.144;24.730;2024-02-16T05:19:58;7.60;;;7.10;;
5876;SDS011;2964;42.144;24.730;2024-02-16T05:22:25;7.83;;;7.23;;
5876;SDS011;2964;42.144;24.730;2024-02-16T05:24:52;8.23;;;7.60;;
5876;SDS011;2964;42.144;24.730;2024-02-16T05:27:18;19.93;;;11.47;;
5876;SDS011;2964;42.144;24.730;2024-02-16T05:29:45;11.53;;;9.10;;
5876;SDS011;2964;42.144;24.730;2024-02-16T05:32:14;8.00;;;7.27;;
5876;SDS011;2964;42.144;24.730;2024-02-16T05:34:41;19.73;;;8.63;;
5876;SDS011;2964;42.144;24.730;2024-02-16T05:37:07;8.57;;;7.87;;
5876;SDS011;2964;42.144;24.730;2024-02-16T05:39:35;13.53;;;7.77;;
5876;SDS011;2964;42.144;24.730;2024-02-16T05:42:18;7.80;;;7.30;;
5876;SDS011;2964;42.144;24.730;2024-02-16T05:44:46;8.07;;;7.47;;
5876;SDS011;2964;42.144;24.730;2024-02-16T05:47:14;8.13;;;7.33;;
5876;SDS011;2964;42.144;24.730;2024-02-16T05:49:41;7.97;;;7.37;;
5876;SDS011;2964;42.144;24.730;2024-02-16T05:52:08;8.23;;;7.60;;
5876;SDS011;2964;42.144;24.730;2024-02-16T05:54:44;12.07;;;7.23;;
5876;SDS011;2964;42.144;24.730;2024-02-16T05:57:11;7.27;;;6.77;;
5876;SDS011;2964;42.144;24.730;2024-02-16T05:59:37;8.20;;;7.70;;
5876;SDS011;2964;42.144;24.730;2024-02-16T06:02:04;7.17;;;6.47;;
5876;SDS011;2964;42.144;24.730;2024-02-16T06:04:33;9.23;;;7.90;;
5876;SDS011;2964;42.144;24.730;2024-02-16T06:07:00;8.47;;;7.77;;
5876;SDS011;2964;42.144;24.730;2024-02-16T06:09:27;8.60;;;7.90;;
5876;SDS011;2964;42.144;24.730;2024-02-16T06:11:59;8.20;;;7.57;;
5876;SDS011;2964;42.144;24.730;2024-02-16T06:14:30;7.90;;;7.30;;
5876;SDS011;2964;42.144;24.730;2024-02-16T06:16:57;9.17;;;8.13;;
5876;SDS011;2964;42.144;24.730;2024-02-16T06:19:24;7.73;;;7.00;;
5876;SDS011;2964;42.144;24.730;2024-02-16T06:21:52;7.20;;;6.70;;
5876;SDS011;2964;42.144;24.730;2024-02-16T06:24:19;9.70;;;8.50;;
5876;SDS011;2964;42.144;24.730;2024-02-16T06:26:46;13.00;;;8.83;;
5876;SDS011;2964;42.144;24.730;2024-02-16T06:29:13;10.00;;;9.17;;
5876;SDS011;2964;42.144;24.730;2024-02-16T06:31:40;8.20;;;7.47;;
5876;SDS011;2964;42.144;24.730;2024-02-16T06:34:06;8.80;;;8.13;;
5876;SDS011;2964;42.144;24.730;2024-02-16T06:36:34;7.80;;;6.90;;
5876;SDS011;2964;42.144;24.730;2024-02-16T06:39:02;8.93;;;7.83;;
5876;SDS011;2964;42.144;24.730;2024-02-16T06:41:29;8.20;;;7.60;;
5876;SDS011;2964;42.144;24.730;2024-02-16T06:43:56;8.90;;;8.20;;
5876;SDS011;2964;42.144;24.730;2024-02-16T06:46:22;7.90;;;7.40;;
5876;SDS011;2964;42.144;24.730;2024-02-16T06:48:49;8.57;;;7.87;;
5876;SDS011;2964;42.144;24.730;2024-02-16T06:51:17;8.30;;;7.53;;
5876;SDS011;2964;42.144;24.730;2024-02-16T06:53:44;8.97;;;7.97;;
5876;SDS011;2964;42.144;24.730;2024-02-16T06:56:12;9.07;;;8.30;;
5876;SDS011;2964;42.144;24.730;2024-02-16T06:58:39;11.77;;;8.57;;
5876;SDS011;2964;42.144;24.730;2024-02-16T07:01:06;9.27;;;8.47;;
5876;SDS011;2964;42.144;24.730;2024-02-16T07:03:34;8.97;;;8.17;;
5876;SDS011;2964;42.144;24.730;2024-02-16T07:06:01;8.77;;;7.97;;
5876;SDS011;2964;42.144;24.730;2024-02-16T07:08:29;12.70;;;8.23;;
5876;SDS011;2964;42.144;24.730;2024-02-16T07:10:56;8.07;;;7.57;;
5876;SDS011;2964;42.144;24.730;2024-02-16T07:13:24;7.80;;;7.17;;
5876;SDS011;2964;42.144;24.730;2024-02-16T07:15:51;8.63;;;8.07;;
5876;SDS011;2964;42.144;24.730;2024-02-16T07:18:17;10.60;;;7.60;;
5876;SDS011;2964;42.144;24.730;2024-02-16T07:20:44;8.60;;;7.73;;
5876;SDS011;2964;42.144;24.730;2024-02-16T07:23:11;8.00;;;7.33;;
5876;SDS011;2964;42.144;24.730;2024-02-16T07:25:37;14.83;;;7.67;;
5876;SDS011;2964;42.144;24.730;2024-02-16T07:28:04;7.70;;;7.13;;
5876;SDS011;2964;42.144;24.730;2024-02-16T07:30:33;7.63;;;7.13;;
5876;SDS011;2964;42.144;24.730;2024-02-16T07:32:59;8.83;;;8.00;;
5876;SDS011;2964;42.144;24.730;2024-02-16T07:35:26;8.90;;;7.83;;
5876;SDS011;2964;42.144;24.730;2024-02-16T07:37:53;8.83;;;7.87;;
5876;SDS011;2964;42.144;24.730;2024-02-16T07:40:19;8.43;;;7.73;;
5876;SDS011;2964;42.144;24.730;2024-02-16T07:42:46;8.23;;;7.50;;
5876;SDS011;2964;42.144;24.730;2024-02-16T07:45:13;8.97;;;7.90;;
5876;SDS011;2964;42.144;24.730;2024-02-16T07:47:41;8.50;;;7.70;;
5876;SDS011;2964;42.144;24.730;2024-02-16T07:50:08;15.40;;;8.40;;
5876;SDS011;2964;42.144;24.730;2024-02-16T07:52:35;8.87;;;8.10;;
5876;SDS011;2964;42.144;24.730;2024-02-16T07:55:04;8.93;;;8.30;;
5876;SDS011;2964;42.144;24.730;2024-02-16T07:57:31;8.67;;;8.00;;
5876;SDS011;2964;42.144;24.730;2024-02-16T07:59:58;9.27;;;8.50;;
5876;SDS011;2964;42.144;24.730;2024-02-16T08:02:25;9.00;;;8.30;;
5876;SDS011;2964;42.144;24.730;2024-02-16T08:04:53;9.30;;;8.37;;
5876;SDS011;2964;42.144;24.730;2024-02-16T08:07:19;8.83;;;8.13;;
5876;SDS011;2964;42.144;24.730;2024-02-16T08:09:46;10.50;;;8.17;;
5876;SDS011;2964;42.144;24.730;2024-02-16T08:12:13;8.70;;;7.87;;
5876;SDS011;2964;42.144;24.730;2024-02-16T08:14:40;8.97;;;8.17;;
5876;SDS011;2964;42.144;24.730;2024-02-16T08:17:07;11.20;;;8.27;;
5876;SDS011;2964;42.144;24.730;2024-02-16T08:19:34;9.33;;;8.63;;
5876;SDS011;2964;42.144;24.730;2024-02-16T08:22:03;8.80;;;8.10;;
5876;SDS011;2964;42.144;24.730;2024-02-16T08:24:31;16.17;;;8.53;;
5876;SDS011;2964;42.144;24.730;2024-02-16T08:26:58;11.77;;;9.27;;
5876;SDS011;2964;42.144;24.730;2024-02-16T08:29:25;8.97;;;8.37;;
5876;SDS011;2964;42.144;24.730;2024-02-16T08:31:51;9.53;;;8.77;;
5876;SDS011;2964;42.144;24.730;2024-02-16T08:34:19;9.17;;;8.37;;
5876;SDS011;2964;42.144;24.730;2024-02-16T08:36:46;8.83;;;8.23;;
5876;SDS011;2964;42.144;24.730;2024-02-16T08:39:16;9.37;;;8.50;;
5876;SDS011;2964;42.144;24.730;2024-02-16T08:41:45;8.03;;;7.50;;
5876;SDS011;2964;42.144;24.730;2024-02-16T08:44:13;9.00;;;8.10;;
5876;SDS011;2964;42.144;24.730;2024-02-16T08:46:40;8.53;;;7.97;;
5876;SDS011;2964;42.144;24.730;2024-02-16T08:49:07;10.30;;;8.47;;
5876;SDS011;2964;42.144;24.730;2024-02-16T08:51:34;7.93;;;7.33;;
5876;SDS011;2964;42.144;24.730;2024-02-16T08:54:01;8.53;;;8.07;;
5876;SDS011;2964;42.144;24.730;2024-02-16T08:56:30;8.07;;;7.47;;
5876;SDS011;2964;42.144;24.730;2024-02-16T08:59:00;8.23;;;7.43;;
5876;SDS011;2964;42.144;24.730;2024-02-16T09:01:30;8.97;;;8.27;;
5876;SDS011;2964;42.144;24.730;2024-02-16T09:03:57;8.27;;;7.77;;
5876;SDS011;2964;42.144;24.730;2024-02-16T09:06:25;8.60;;;7.80;;
5876;SDS011;2964;42.144;24.730;2024-02-16T09:08:51;9.00;;;8.30;;
5876;SDS011;2964;42.144;24.730;2024-02-16T09:11:18;9.03;;;8.07;;
5876;SDS011;2964;42.144;24.730;2024-02-16T09:13:46;8.50;;;7.80;;
5876;SDS011;2964;42.144;24.730;2024-02-16T09:16:13;8.50;;;7.80;;
5876;SDS011;2964;42.144;24.730;2024-02-16T09:18:40;9.07;;;8.40;;
5876;SDS011;2964;42.144;24.730;2024-02-16T09:21:07;8.77;;;7.87;;
5876;SDS011;2964;42.144;24.730;2024-02-16T09:23:35;8.17;;;7.67;;
5876;SDS011;2964;42.144;24.730;2024-02-16T09:26:03;9.53;;;8.07;;
5876;SDS011;2964;42.144;24.730;2024-02-16T09:28:30;8.53;;;7.93;;
5876;SDS011;2964;42.144;24.730;2024-02-16T09:30:58;7.83;;;7.30;;
5876;SDS011;2964;42.144;24.730;2024-02-16T09:33:25;8.43;;;7.93;;
5876;SDS011;2964;42.144;24.730;2024-02-16T09:35:53;8.40;;;7.80;;
5876;SDS011;2964;42.144;24.730;2024-02-16T09:38:20;11.10;;;7.87;;
5876;SDS011;2964;42.144;24.730;2024-02-16T09:40:46;8.37;;;7.30;;
5876;SDS011;2964;42.144;24.730;2024-02-16T09:43:22;8.70;;;8.07;;
5876;SDS011;2964;42.144;24.730;2024-02-16T09:45:52;8.60;;;7.43;;
5876;SDS011;2964;42.144;24.730;2024-02-16T09:48:20;6.73;;;6.33;;
5876;SDS011;2964;42.144;24.730;2024-02-16T09:50:48;8.10;;;7.40;;
5876;SDS011;2964;42.144;24.730;2024-02-16T09:53:16;8.73;;;8.13;;
5876;SDS011;2964;42.144;24.730;2024-02-16T09:55:46;7.47;;;6.93;;
5876;SDS011;2964;42.144;24.730;2024-02-16T09:58:14;7.60;;;7.00;;
5876;SDS011;2964;42.144;24.730;2024-02-16T10:00:47;7.03;;;6.73;;
5876;SDS011;2964;42.144;24.730;2024-02-16T10:03:26;8.67;;;7.10;;
5876;SDS011;2964;42.144;24.730;2024-02-16T10:06:03;7.87;;;7.37;;
5876;SDS011;2964;42.144;24.730;2024-02-16T10:08:31;7.13;;;6.73;;
5876;SDS011;2964;42.144;24.730;2024-02-16T10:11:02;7.43;;;6.73;;
5876;SDS011;2964;42.144;24.730;2024-02-16T10:13:29;7.10;;;6.60;;
5876;SDS011;2964;42.144;24.730;2024-02-16T10:16:04;6.83;;;6.53;;
5876;SDS011;2964;42.144;24.730;2024-02-16T10:18:35;7.40;;;7.00;;
5876;SDS011;2964;42.144;24.730;2024-02-16T10:21:03;7.23;;;6.47;;
5876;SDS011;2964;42.144;24.730;2024-02-16T10:23:31;6.80;;;6.40;;
5876;SDS011;2964;42.144;24.730;2024-02-16T10:25:57;7.10;;;6.70;;
5876;SDS011;2964;42.144;24.730;2024-02-16T10:28:25;6.60;;;6.27;;
5876;SDS011;2964;42.144;24.730;2024-02-16T10:30:57;7.50;;;7.10;;
5876;SDS011;2964;42.144;24.730;2024-02-16T10:33:26;7.03;;;6.63;;
5876;SDS011;2964;42.144;24.730;2024-02-16T10:35:56;8.00;;;7.30;;
5876;SDS011;2964;42.144;24.730;2024-02-16T10:38:24;6.80;;;6.50;;
5876;SDS011;2964;42.144;24.730;2024-02-16T10:40:52;6.90;;;6.60;;
5876;SDS011;2964;42.144;24.730;2024-02-16T10:43:19;7.37;;;6.87;;
5876;SDS011;2964;42.144;24.730;2024-02-16T10:45:47;6.50;;;6.10;;
5876;SDS011;2964;42.144;24.730;2024-02-16T10:48:18;7.27;;;6.77;;
5876;SDS011;2964;42.144;24.730;2024-02-16T10:50:45;7.30;;;7.00;;
5876;SDS011;2964;42.144;24.730;2024-02-16T10:53:18;7.10;;;6.70;;
5876;SDS011;2964;42.144;24.730;2024-02-16T10:55:49;6.40;;;6.10;;
5876;SDS011;2964;42.144;24.730;2024-02-16T10:58:16;6.90;;;6.50;;
5876;SDS011;2964;42.144;24.730;2024-02-16T11:00:53;8.00;;;6.53;;
5876;SDS011;2964;42.144;24.730;2024-02-16T11:03:24;6.77;;;6.47;;
5876;SDS011;2964;42.144;24.730;2024-02-16T11:05:53;7.27;;;6.77;;
5876;SDS011;2964;42.144;24.730;2024-02-16T11:08:23;8.93;;;7.27;;
5876;SDS011;2964;42.144;24.730;2024-02-16T11:10:55;6.97;;;6.67;;
5876;SDS011;2964;42.144;24.730;2024-02-16T11:13:22;7.00;;;6.70;;
5876;SDS011;2964;42.144;24.730;2024-02-16T11:15:56;7.60;;;7.30;;
5876;SDS011;2964;42.144;24.730;2024-02-16T11:18:23;7.47;;;7.17;;
5876;SDS011;2964;42.144;24.730;2024-02-16T11:20:49;6.20;;;6.00;;
5876;SDS011;2964;42.144;24.730;2024-02-16T11:23:16;7.03;;;6.07;;
5876;SDS011;2964;42.144;24.730;2024-02-16T11:25:50;6.83;;;6.37;;
5876;SDS011;2964;42.144;24.730;2024-02-16T11:28:17;6.70;;;6.40;;
5876;SDS011;2964;42.144;24.730;2024-02-16T11:30:44;6.00;;;5.70;;
5876;SDS011;2964;42.144;24.730;2024-02-16T11:33:11;6.00;;;5.70;;
5876;SDS011;2964;42.144;24.730;2024-02-16T11:35:39;5.80;;;5.60;;
5876;SDS011;2964;42.144;24.730;2024-02-16T11:38:08;5.97;;;5.67;;
5876;SDS011;2964;42.144;24.730;2024-02-16T11:40:36;6.40;;;6.17;;
5876;SDS011;2964;42.144;24.730;2024-02-16T11:43:04;5.83;;;5.63;;
5876;SDS011;2964;42.144;24.730;2024-02-16T11:45:33;5.67;;;5.17;;
5876;SDS011;2964;42.144;24.730;2024-02-16T11:48:04;5.17;;;4.97;;
5876;SDS011;2964;42.144;24.730;2024-02-16T11:50:31;5.63;;;5.23;;
5876;SDS011;2964;42.144;24.730;2024-02-16T11:52:58;5.70;;;5.50;;
5876;SDS011;2964;42.144;24.730;2024-02-16T11:55:25;5.33;;;5.13;;
5876;SDS011;2964;42.144;24.730;2024-02-16T11:57:51;5.60;;;5.40;;
5876;SDS011;2964;42.144;24.730;2024-02-16T12:00:21;5.30;;;5.00;;
5876;SDS011;2964;42.144;24.730;2024-02-16T12:02:58;5.17;;;4.87;;
5876;SDS011;2964;42.144;24.730;2024-02-16T12:05:25;5.77;;;5.47;;
5876;SDS011;2964;42.144;24.730;2024-02-16T12:07:51;5.43;;;5.23;;
5876;SDS011;2964;42.144;24.730;2024-02-16T12:10:18;5.53;;;5.13;;
5876;SDS011;2964;42.144;24.730;2024-02-16T12:12:45;5.53;;;5.20;;
5876;SDS011;2964;42.144;24.730;2024-02-16T12:15:13;5.33;;;5.10;;
5876;SDS011;2964;42.144;24.730;2024-02-16T12:17:43;6.23;;;5.63;;
5876;SDS011;2964;42.144;24.730;2024-02-16T12:20:12;5.67;;;5.43;;
5876;SDS011;2964;42.144;24.730;2024-02-16T12:22:39;6.40;;;5.97;;
5876;SDS011;2964;42.144;24.730;2024-02-16T12:25:06;5.80;;;5.60;;
5876;SDS011;2964;42.144;24.730;2024-02-16T12:27:34;5.83;;;5.63;;
5876;SDS011;2964;42.144;24.730;2024-02-16T12:30:00;7.90;;;5.73;;
5876;SDS011;2964;42.144;24.730;2024-02-16T12:32:27;5.33;;;5.13;;
5876;SDS011;2964;42.144;24.730;2024-02-16T12:34:55;6.13;;;5.73;;
5876;SDS011;2964;42.144;24.730;2024-02-16T12:37:22;5.60;;;5.30;;
5876;SDS011;2964;42.144;24.730;2024-02-16T12:39:49;5.87;;;5.47;;
5876;SDS011;2964;42.144;24.730;2024-02-16T12:42:16;6.00;;;5.60;;
5876;SDS011;2964;42.144;24.730;2024-02-16T12:44:43;5.43;;;5.13;;
5876;SDS011;2964;42.144;24.730;2024-02-16T12:47:09;5.93;;;5.67;;
5876;SDS011;2964;42.144;24.730;2024-02-16T12:49:36;5.57;;;5.27;;
5876;SDS011;2964;42.144;24.730;2024-02-16T12:52:04;5.80;;;5.60;;
5876;SDS011;2964;42.144;24.730;2024-02-16T12:54:32;5.83;;;5.53;;
5876;SDS011;2964;42.144;24.730;2024-02-16T12:56:59;5.73;;;5.33;;
5876;SDS011;2964;42.144;24.730;2024-02-16T12:59:26;5.23;;;4.93;;
5876;SDS011;2964;42.144;24.730;2024-02-16T13:01:53;5.90;;;5.67;;
5876;SDS011;2964;42.144;24.730;2024-02-16T13:04:19;6.17;;;5.77;;
5876;SDS011;2964;42.144;24.730;2024-02-16T13:06:48;5.53;;;5.33;;
5876;SDS011;2964;42.144;24.730;2024-02-16T13:09:16;6.77;;;6.47;;
5876;SDS011;2964;42.144;24.730;2024-02-16T13:11:42;5.73;;;5.33;;
5876;SDS011;2964;42.144;24.730;2024-02-16T13:14:09;5.90;;;5.60;;
5876;SDS011;2964;42.144;24.730;2024-02-16T13:16:36;4.87;;;4.67;;
5876;SDS011;2964;42.144;24.730;2024-02-16T13:19:02;5.93;;;5.60;;
5876;SDS011;2964;42.144;24.730;2024-02-16T13:21:29;6.27;;;5.97;;
5876;SDS011;2964;42.144;24.730;2024-02-16T13:23:56;5.70;;;5.37;;
5876;SDS011;2964;42.144;24.730;2024-02-16T13:26:24;5.47;;;5.27;;
5876;SDS011;2964;42.144;24.730;2024-02-16T13:28:51;6.03;;;5.73;;
5876;SDS011;2964;42.144;24.730;2024-02-16T13:31:20;5.53;;;5.23;;
5876;SDS011;2964;42.144;24.730;2024-02-16T13:33:47;5.90;;;5.57;;
5876;SDS011;2964;42.144;24.730;2024-02-16T13:36:13;5.40;;;5.10;;
5876;SDS011;2964;42.144;24.730;2024-02-16T13:38:40;5.07;;;4.87;;
5876;SDS011;2964;42.144;24.730;2024-02-16T13:41:07;4.83;;;4.63;;
5876;SDS011;2964;42.144;24.730;2024-02-16T13:43:35;5.50;;;5.20;;
5876;SDS011;2964;42.144;24.730;2024-02-16T13:46:02;5.57;;;5.27;;
5876;SDS011;2964;42.144;24.730;2024-02-16T13:48:29;5.47;;;5.27;;
5876;SDS011;2964;42.144;24.730;2024-02-16T13:50:56;6.10;;;5.70;;
5876;SDS011;2964;42.144;24.730;2024-02-16T13:53:23;6.13;;;5.67;;
5876;SDS011;2964;42.144;24.730;2024-02-16T13:55:50;6.47;;;6.00;;
5876;SDS011;2964;42.144;24.730;2024-02-16T13:58:16;5.50;;;5.10;;
5876;SDS011;2964;42.144;24.730;2024-02-16T14:00:44;5.67;;;5.37;;
5876;SDS011;2964;42.144;24.730;2024-02-16T14:03:11;6.03;;;5.73;;
5876;SDS011;2964;42.144;24.730;2024-02-16T14:05:40;5.97;;;5.67;;
5876;SDS011;2964;42.144;24.730;2024-02-16T14:08:10;5.97;;;5.70;;
5876;SDS011;2964;42.144;24.730;2024-02-16T14:10:37;6.03;;;5.60;;
5876;SDS011;2964;42.144;24.730;2024-02-16T14:13:04;5.97;;;5.67;;
5876;SDS011;2964;42.144;24.730;2024-02-16T14:15:31;6.13;;;5.83;;
5876;SDS011;2964;42.144;24.730;2024-02-16T14:17:59;5.87;;;5.37;;
5876;SDS011;2964;42.144;24.730;2024-02-16T14:20:26;6.30;;;5.83;;
5876;SDS011;2964;42.144;24.730;2024-02-16T14:22:53;6.07;;;5.77;;
5876;SDS011;2964;42.144;24.730;2024-02-16T14:25:20;5.77;;;5.57;;
5876;SDS011;2964;42.144;24.730;2024-02-16T14:27:46;6.37;;;6.00;;
5876;SDS011;2964;42.144;24.730;2024-02-16T14:30:13;6.60;;;6.30;;
5876;SDS011;2964;42.144;24.730;2024-02-16T14:32:40;6.70;;;6.23;;
5876;SDS011;2964;42.144;24.730;2024-02-16T14:35:08;7.17;;;6.57;;
5876;SDS011;2964;42.144;24.730;2024-02-16T14:37:37;7.10;;;6.43;;
5876;SDS011;2964;42.144;24.730;2024-02-16T14:40:04;6.60;;;6.30;;
5876;SDS011;2964;42.144;24.730;2024-02-16T14:42:35;16.60;;;14.87;;
5876;SDS011;2964;42.144;24.730;2024-02-16T14:45:02;6.40;;;6.00;;
5876;SDS011;2964;42.144;24.730;2024-02-16T14:47:29;7.10;;;6.70;;
5876;SDS011;2964;42.144;24.730;2024-02-16T14:49:55;6.53;;;6.10;;
5876;SDS011;2964;42.144;24.730;2024-02-16T14:52:23;6.50;;;6.20;;
5876;SDS011;2964;42.144;24.730;2024-02-16T14:54:50;7.03;;;6.53;;
5876;SDS011;2964;42.144;24.730;2024-02-16T14:57:17;6.93;;;6.43;;
5876;SDS011;2964;42.144;24.730;2024-02-16T14:59:45;6.47;;;6.07;;
5876;SDS011;2964;42.144;24.730;2024-02-16T15:02:17;6.27;;;5.93;;